Terminal Aerodrome Forecast
Issued by NWS

Home | Current Version | Previous Version | Text Only | Print | Product List | Glossary On
Versions: 1 2 3 4 5 6 7 8 9 10 11 12 13 14 15 16 17 18 19 20 21 22 23 24 25 26 27 28 29 30 31 32 33 34
000
FTUS43 KGRB 302342
TAFATW
TAF
KATW 302342Z 0100/0124 05017G28KT P6SM OVC005
     FM010300 04020G29KT 5SM -SHRA OVC005
     FM010700 06015G24KT 5SM -SHRA OVC004 PROB30 0109/0111 2SM TSRA
      OVC003CB
     FM011100 07005KT 1SM -SHRA BR OVC004
     FM011400 15009G14KT 5SM -SHRA OVC010
     FM011600 19010KT P6SM SCT020 BKN040
      TEMPO 0120/0124 3SM -SHRA BR BKN020=

USA.gov is the U.S. government's official web portal to all federal, state and local government web resources and services.